sensor_id;sensor_type;location;lat;lon;timestamp;temperature;humidity
40952;DHT22;26682;51.660;19.338;2023-03-14T00:02:06;10.10;1.00
40952;DHT22;26682;51.660;19.338;2023-03-14T00:04:49;10.20;1.00
40952;DHT22;26682;51.660;19.338;2023-03-14T00:07:37;10.10;1.00
40952;DHT22;26682;51.660;19.338;2023-03-14T00:10:20;10.10;1.00
40952;DHT22;26682;51.660;19.338;2023-03-14T00:13:03;10.10;1.00
40952;DHT22;26682;51.660;19.338;2023-03-14T00:15:46;10.00;1.00
40952;DHT22;26682;51.660;19.338;2023-03-14T00:18:28;10.00;1.00
40952;DHT22;26682;51.660;19.338;2023-03-14T00:21:11;10.00;1.00
40952;DHT22;26682;51.660;19.338;2023-03-14T00:23:53;10.00;1.00
40952;DHT22;26682;51.660;19.338;2023-03-14T00:26:36;10.00;1.00
40952;DHT22;26682;51.660;19.338;2023-03-14T00:29:18;9.90;1.00
40952;DHT22;26682;51.660;19.338;2023-03-14T00:32:00;9.90;1.00
40952;DHT22;26682;51.660;19.338;2023-03-14T00:34:43;9.90;1.00
40952;DHT22;26682;51.660;19.338;2023-03-14T00:37:26;9.80;1.00
40952;DHT22;26682;51.660;19.338;2023-03-14T00:40:09;9.80;1.00
40952;DHT22;26682;51.660;19.338;2023-03-14T00:42:52;9.80;1.00
40952;DHT22;26682;51.660;19.338;2023-03-14T00:45:34;9.80;1.00
40952;DHT22;26682;51.660;19.338;2023-03-14T00:48:18;9.80;1.00
40952;DHT22;26682;51.660;19.338;2023-03-14T00:51:05;9.80;1.00
40952;DHT22;26682;51.660;19.338;2023-03-14T00:53:49;9.90;1.00
40952;DHT22;26682;51.660;19.338;2023-03-14T00:56:32;9.80;1.00
40952;DHT22;26682;51.660;19.338;2023-03-14T00:59:15;9.90;1.00
40952;DHT22;26682;51.660;19.338;2023-03-14T01:01:58;9.90;1.00
40952;DHT22;26682;51.660;19.338;2023-03-14T01:04:41;9.90;1.00
40952;DHT22;26682;51.660;19.338;2023-03-14T01:07:25;9.90;1.00
40952;DHT22;26682;51.660;19.338;2023-03-14T01:10:08;9.90;1.00
40952;DHT22;26682;51.660;19.338;2023-03-14T01:12:51;9.90;1.00
40952;DHT22;26682;51.660;19.338;2023-03-14T01:15:35;9.90;1.00
40952;DHT22;26682;51.660;19.338;2023-03-14T01:18:18;10.00;1.00
40952;DHT22;26682;51.660;19.338;2023-03-14T01:21:01;10.00;1.00
40952;DHT22;26682;51.660;19.338;2023-03-14T01:23:44;10.00;1.00
40952;DHT22;26682;51.660;19.338;2023-03-14T01:26:29;10.00;1.00
40952;DHT22;26682;51.660;19.338;2023-03-14T01:29:11;10.10;1.00
40952;DHT22;26682;51.660;19.338;2023-03-14T01:31:55;10.10;1.00
40952;DHT22;26682;51.660;19.338;2023-03-14T01:34:38;10.10;1.00
40952;DHT22;26682;51.660;19.338;2023-03-14T01:37:21;10.10;1.00
40952;DHT22;26682;51.660;19.338;2023-03-14T01:40:03;9.90;1.00
40952;DHT22;26682;51.660;19.338;2023-03-14T01:42:55;9.80;1.00
40952;DHT22;26682;51.660;19.338;2023-03-14T01:48:55;9.70;1.00
40952;DHT22;26682;51.660;19.338;2023-03-14T01:51:49;9.60;1.00
40952;DHT22;26682;51.660;19.338;2023-03-14T01:54:46;9.60;1.00
40952;DHT22;26682;51.660;19.338;2023-03-14T01:57:32;9.60;1.00
40952;DHT22;26682;51.660;19.338;2023-03-14T02:00:20;9.60;1.00
40952;DHT22;26682;51.660;19.338;2023-03-14T02:03:42;9.60;1.00
40952;DHT22;26682;51.660;19.338;2023-03-14T02:06:34;9.60;1.00
40952;DHT22;26682;51.660;19.338;2023-03-14T02:09:18;9.60;1.00
40952;DHT22;26682;51.660;19.338;2023-03-14T02:12:01;9.60;1.00
40952;DHT22;26682;51.660;19.338;2023-03-14T02:15:01;9.50;1.00
40952;DHT22;26682;51.660;19.338;2023-03-14T02:17:57;9.40;1.00
40952;DHT22;26682;51.660;19.338;2023-03-14T02:21:05;9.40;1.00
40952;DHT22;26682;51.660;19.338;2023-03-14T02:27:11;9.20;1.00
40952;DHT22;26682;51.660;19.338;2023-03-14T02:30:15;9.10;1.00
40952;DHT22;26682;51.660;19.338;2023-03-14T02:33:04;9.10;1.00
40952;DHT22;26682;51.660;19.338;2023-03-14T02:35:49;9.00;1.00
40952;DHT22;26682;51.660;19.338;2023-03-14T02:38:40;8.90;1.00
40952;DHT22;26682;51.660;19.338;2023-03-14T02:41:24;8.80;1.00
40952;DHT22;26682;51.660;19.338;2023-03-14T02:44:15;8.70;1.00
40952;DHT22;26682;51.660;19.338;2023-03-14T02:46:58;8.70;1.00
40952;DHT22;26682;51.660;19.338;2023-03-14T02:49:40;8.60;1.00
40952;DHT22;26682;51.660;19.338;2023-03-14T02:52:23;8.60;1.00
40952;DHT22;26682;51.660;19.338;2023-03-14T02:55:05;8.50;1.00
40952;DHT22;26682;51.660;19.338;2023-03-14T02:57:50;8.40;1.00
40952;DHT22;26682;51.660;19.338;2023-03-14T03:00:32;8.20;1.00
40952;DHT22;26682;51.660;19.338;2023-03-14T03:03:17;8.10;1.00
40952;DHT22;26682;51.660;19.338;2023-03-14T03:06:02;8.00;1.00
40952;DHT22;26682;51.660;19.338;2023-03-14T03:08:44;8.00;1.00
40952;DHT22;26682;51.660;19.338;2023-03-14T03:11:27;7.90;1.00
40952;DHT22;26682;51.660;19.338;2023-03-14T03:14:09;7.80;1.00
40952;DHT22;26682;51.660;19.338;2023-03-14T03:16:52;7.80;1.00
40952;DHT22;26682;51.660;19.338;2023-03-14T03:19:36;7.80;1.00
40952;DHT22;26682;51.660;19.338;2023-03-14T03:22:18;7.80;1.00
40952;DHT22;26682;51.660;19.338;2023-03-14T03:25:00;7.80;1.00
40952;DHT22;26682;51.660;19.338;2023-03-14T03:27:45;7.80;1.00
40952;DHT22;26682;51.660;19.338;2023-03-14T03:30:31;7.80;1.00
40952;DHT22;26682;51.660;19.338;2023-03-14T03:33:14;7.80;1.00
40952;DHT22;26682;51.660;19.338;2023-03-14T03:35:59;7.80;1.00
40952;DHT22;26682;51.660;19.338;2023-03-14T03:38:46;7.80;1.00
40952;DHT22;26682;51.660;19.338;2023-03-14T03:41:28;7.90;1.00
40952;DHT22;26682;51.660;19.338;2023-03-14T03:44:11;7.80;1.00
40952;DHT22;26682;51.660;19.338;2023-03-14T03:46:55;7.90;1.00
40952;DHT22;26682;51.660;19.338;2023-03-14T03:49:37;7.90;1.00
40952;DHT22;26682;51.660;19.338;2023-03-14T03:52:23;7.90;1.00
40952;DHT22;26682;51.660;19.338;2023-03-14T03:55:05;7.90;1.00
40952;DHT22;26682;51.660;19.338;2023-03-14T03:57:48;7.90;1.00
40952;DHT22;26682;51.660;19.338;2023-03-14T04:00:31;8.00;1.00
40952;DHT22;26682;51.660;19.338;2023-03-14T04:03:15;8.00;1.00
40952;DHT22;26682;51.660;19.338;2023-03-14T04:06:06;8.00;1.00
40952;DHT22;26682;51.660;19.338;2023-03-14T04:08:51;8.00;1.00
40952;DHT22;26682;51.660;19.338;2023-03-14T04:11:46;8.00;1.00
40952;DHT22;26682;51.660;19.338;2023-03-14T04:14:35;8.00;1.00
40952;DHT22;26682;51.660;19.338;2023-03-14T04:17:28;8.00;1.00
40952;DHT22;26682;51.660;19.338;2023-03-14T04:20:11;8.00;1.00
40952;DHT22;26682;51.660;19.338;2023-03-14T04:22:54;8.00;1.00
40952;DHT22;26682;51.660;19.338;2023-03-14T04:25:37;8.00;1.00
40952;DHT22;26682;51.660;19.338;2023-03-14T04:28:20;8.00;1.00
40952;DHT22;26682;51.660;19.338;2023-03-14T04:31:10;7.90;1.00
40952;DHT22;26682;51.660;19.338;2023-03-14T04:33:53;8.00;1.00
40952;DHT22;26682;51.660;19.338;2023-03-14T04:36:46;7.90;1.00
40952;DHT22;26682;51.660;19.338;2023-03-14T04:39:33;7.90;1.00
40952;DHT22;26682;51.660;19.338;2023-03-14T04:42:40;7.90;1.00
40952;DHT22;26682;51.660;19.338;2023-03-14T04:45:23;7.80;1.00
40952;DHT22;26682;51.660;19.338;2023-03-14T04:48:06;7.90;1.00
40952;DHT22;26682;51.660;19.338;2023-03-14T04:50:49;7.90;1.00
40952;DHT22;26682;51.660;19.338;2023-03-14T04:53:32;7.90;1.00
40952;DHT22;26682;51.660;19.338;2023-03-14T04:56:18;7.90;1.00
40952;DHT22;26682;51.660;19.338;2023-03-14T04:59:01;7.90;1.00
40952;DHT22;26682;51.660;19.338;2023-03-14T05:01:44;7.90;1.00
40952;DHT22;26682;51.660;19.338;2023-03-14T05:04:52;7.90;1.00
40952;DHT22;26682;51.660;19.338;2023-03-14T05:07:58;7.90;1.10
40952;DHT22;26682;51.660;19.338;2023-03-14T05:10:59;7.90;5.20
40952;DHT22;26682;51.660;19.338;2023-03-14T05:14:05;7.80;5.70
40952;DHT22;26682;51.660;19.338;2023-03-14T05:17:08;7.90;1.00
40952;DHT22;26682;51.660;19.338;2023-03-14T05:20:11;8.00;1.00
40952;DHT22;26682;51.660;19.338;2023-03-14T05:23:19;8.10;1.00
40952;DHT22;26682;51.660;19.338;2023-03-14T05:26:24;8.20;18.30
40952;DHT22;26682;51.660;19.338;2023-03-14T05:29:32;8.40;1.00
40952;DHT22;26682;51.660;19.338;2023-03-14T05:32:40;8.40;1.00
40952;DHT22;26682;51.660;19.338;2023-03-14T05:35:32;8.50;1.00
40952;DHT22;26682;51.660;19.338;2023-03-14T05:38:34;8.50;1.00
40952;DHT22;26682;51.660;19.338;2023-03-14T05:41:45;8.60;1.00
40952;DHT22;26682;51.660;19.338;2023-03-14T05:44:39;8.60;1.00
40952;DHT22;26682;51.660;19.338;2023-03-14T05:47:45;8.80;1.00
40952;DHT22;26682;51.660;19.338;2023-03-14T05:50:38;8.90;1.00
40952;DHT22;26682;51.660;19.338;2023-03-14T05:53:50;9.10;1.00
40952;DHT22;26682;51.660;19.338;2023-03-14T05:56:57;9.40;1.00
40952;DHT22;26682;51.660;19.338;2023-03-14T05:59:48;9.70;1.00
40952;DHT22;26682;51.660;19.338;2023-03-14T06:02:50;9.90;1.00
40952;DHT22;26682;51.660;19.338;2023-03-14T06:05:38;10.20;1.00
40952;DHT22;26682;51.660;19.338;2023-03-14T06:08:21;10.50;1.00
40952;DHT22;26682;51.660;19.338;2023-03-14T06:11:05;10.50;1.00
40952;DHT22;26682;51.660;19.338;2023-03-14T06:13:48;10.50;1.00
40952;DHT22;26682;51.660;19.338;2023-03-14T06:16:30;10.60;1.00
40952;DHT22;26682;51.660;19.338;2023-03-14T06:19:15;10.80;1.00
40952;DHT22;26682;51.660;19.338;2023-03-14T06:21:58;11.10;1.00
40952;DHT22;26682;51.660;19.338;2023-03-14T06:24:41;11.20;1.00
40952;DHT22;26682;51.660;19.338;2023-03-14T06:27:24;11.20;1.00
40952;DHT22;26682;51.660;19.338;2023-03-14T06:30:12;11.30;1.00
40952;DHT22;26682;51.660;19.338;2023-03-14T06:32:54;11.40;1.00
40952;DHT22;26682;51.660;19.338;2023-03-14T06:35:37;11.70;1.00
40952;DHT22;26682;51.660;19.338;2023-03-14T06:38:20;11.90;99.90
40952;DHT22;26682;51.660;19.338;2023-03-14T06:41:07;11.90;99.90
40952;DHT22;26682;51.660;19.338;2023-03-14T06:43:54;11.90;99.90
40952;DHT22;26682;51.660;19.338;2023-03-14T06:46:37;11.70;99.90
40952;DHT22;26682;51.660;19.338;2023-03-14T06:49:21;11.60;99.90
40952;DHT22;26682;51.660;19.338;2023-03-14T06:52:07;11.50;99.90
40952;DHT22;26682;51.660;19.338;2023-03-14T06:54:50;11.40;99.90
40952;DHT22;26682;51.660;19.338;2023-03-14T06:57:35;11.30;99.90
40952;DHT22;26682;51.660;19.338;2023-03-14T07:00:19;11.30;99.90
40952;DHT22;26682;51.660;19.338;2023-03-14T07:03:02;11.20;99.90
40952;DHT22;26682;51.660;19.338;2023-03-14T07:05:49;11.20;99.90
40952;DHT22;26682;51.660;19.338;2023-03-14T07:08:31;11.40;99.90
40952;DHT22;26682;51.660;19.338;2023-03-14T07:11:16;11.50;99.90
40952;DHT22;26682;51.660;19.338;2023-03-14T07:13:58;11.60;99.90
40952;DHT22;26682;51.660;19.338;2023-03-14T07:16:41;11.60;99.90
40952;DHT22;26682;51.660;19.338;2023-03-14T07:19:24;11.60;99.90
40952;DHT22;26682;51.660;19.338;2023-03-14T07:22:07;11.60;99.90
40952;DHT22;26682;51.660;19.338;2023-03-14T07:24:50;11.60;99.90
40952;DHT22;26682;51.660;19.338;2023-03-14T07:27:33;11.60;99.90
40952;DHT22;26682;51.660;19.338;2023-03-14T07:30:16;11.70;99.90
40952;DHT22;26682;51.660;19.338;2023-03-14T07:33:00;11.80;99.90
40952;DHT22;26682;51.660;19.338;2023-03-14T07:35:43;11.90;99.90
40952;DHT22;26682;51.660;19.338;2023-03-14T07:38:26;12.20;99.90
40952;DHT22;26682;51.660;19.338;2023-03-14T07:41:30;12.40;99.90
40952;DHT22;26682;51.660;19.338;2023-03-14T07:44:39;12.80;99.90
40952;DHT22;26682;51.660;19.338;2023-03-14T07:47:42;13.00;99.90
40952;DHT22;26682;51.660;19.338;2023-03-14T07:50:25;12.80;99.90
40952;DHT22;26682;51.660;19.338;2023-03-14T07:53:08;12.80;99.90
40952;DHT22;26682;51.660;19.338;2023-03-14T07:55:52;12.70;99.90
40952;DHT22;26682;51.660;19.338;2023-03-14T07:58:34;12.50;99.90
40952;DHT22;26682;51.660;19.338;2023-03-14T08:01:17;12.30;99.90
40952;DHT22;26682;51.660;19.338;2023-03-14T08:04:00;12.20;99.90
40952;DHT22;26682;51.660;19.338;2023-03-14T08:06:42;12.10;99.90
40952;DHT22;26682;51.660;19.338;2023-03-14T08:09:25;12.10;99.90
40952;DHT22;26682;51.660;19.338;2023-03-14T08:12:08;12.10;99.90
40952;DHT22;26682;51.660;19.338;2023-03-14T08:14:50;12.20;99.90
40952;DHT22;26682;51.660;19.338;2023-03-14T08:17:33;12.30;99.90
40952;DHT22;26682;51.660;19.338;2023-03-14T08:20:18;12.40;99.90
40952;DHT22;26682;51.660;19.338;2023-03-14T08:23:16;12.50;99.90
40952;DHT22;26682;51.660;19.338;2023-03-14T08:26:03;12.50;99.90
40952;DHT22;26682;51.660;19.338;2023-03-14T08:28:49;12.50;99.90
40952;DHT22;26682;51.660;19.338;2023-03-14T08:31:51;12.60;99.90
40952;DHT22;26682;51.660;19.338;2023-03-14T08:34:51;12.60;99.90
40952;DHT22;26682;51.660;19.338;2023-03-14T08:37:41;12.80;99.90
40952;DHT22;26682;51.660;19.338;2023-03-14T08:40:23;12.90;99.90
40952;DHT22;26682;51.660;19.338;2023-03-14T08:43:06;13.10;99.90
40952;DHT22;26682;51.660;19.338;2023-03-14T08:45:50;13.20;99.90
40952;DHT22;26682;51.660;19.338;2023-03-14T08:48:33;13.30;99.90
40952;DHT22;26682;51.660;19.338;2023-03-14T08:51:16;13.20;99.90
40952;DHT22;26682;51.660;19.338;2023-03-14T08:54:02;13.10;99.90
40952;DHT22;26682;51.660;19.338;2023-03-14T08:56:59;13.10;99.90
40952;DHT22;26682;51.660;19.338;2023-03-14T08:59:49;13.00;99.90
40952;DHT22;26682;51.660;19.338;2023-03-14T09:02:35;13.00;99.90
40952;DHT22;26682;51.660;19.338;2023-03-14T09:05:18;13.00;99.90
40952;DHT22;26682;51.660;19.338;2023-03-14T09:08:00;13.10;99.90
40952;DHT22;26682;51.660;19.338;2023-03-14T09:10:43;13.10;93.00
40952;DHT22;26682;51.660;19.338;2023-03-14T09:13:26;13.10;99.90
40952;DHT22;26682;51.660;19.338;2023-03-14T09:16:09;13.10;92.60
40952;DHT22;26682;51.660;19.338;2023-03-14T09:18:53;13.10;93.80
40952;DHT22;26682;51.660;19.338;2023-03-14T09:21:36;13.20;91.70
40952;DHT22;26682;51.660;19.338;2023-03-14T09:24:21;13.30;85.10
40952;DHT22;26682;51.660;19.338;2023-03-14T09:30:18;13.50;95.40
40952;DHT22;26682;51.660;19.338;2023-03-14T09:33:00;13.70;99.90
40952;DHT22;26682;51.660;19.338;2023-03-14T09:35:43;13.90;99.90
40952;DHT22;26682;51.660;19.338;2023-03-14T09:38:26;13.80;25.50
40952;DHT22;26682;51.660;19.338;2023-03-14T09:41:25;13.60;38.30
40952;DHT22;26682;51.660;19.338;2023-03-14T09:44:24;13.50;47.00
40952;DHT22;26682;51.660;19.338;2023-03-14T09:47:12;13.70;79.10
40952;DHT22;26682;51.660;19.338;2023-03-14T09:49:55;14.10;45.40
40952;DHT22;26682;51.660;19.338;2023-03-14T09:52:39;14.00;35.00
40952;DHT22;26682;51.660;19.338;2023-03-14T09:55:24;13.80;1.00
40952;DHT22;26682;51.660;19.338;2023-03-14T09:58:24;13.60;1.00
40952;DHT22;26682;51.660;19.338;2023-03-14T10:06:48;13.50;3.90
40952;DHT22;26682;51.660;19.338;2023-03-14T10:10:00;13.50;1.00
40952;DHT22;26682;51.660;19.338;2023-03-14T10:12:59;13.40;1.00
40952;DHT22;26682;51.660;19.338;2023-03-14T10:16:40;13.30;1.00
40952;DHT22;26682;51.660;19.338;2023-03-14T10:19:58;13.20;1.00
40952;DHT22;26682;51.660;19.338;2023-03-14T10:22:42;13.20;1.00
40952;DHT22;26682;51.660;19.338;2023-03-14T10:25:36;13.20;1.00
40952;DHT22;26682;51.660;19.338;2023-03-14T10:28:28;13.30;1.00
40952;DHT22;26682;51.660;19.338;2023-03-14T10:31:11;13.30;1.00
40952;DHT22;26682;51.660;19.338;2023-03-14T10:34:02;13.40;1.00
40952;DHT22;26682;51.660;19.338;2023-03-14T10:36:46;13.40;1.00
40952;DHT22;26682;51.660;19.338;2023-03-14T10:40:01;13.30;1.00
40952;DHT22;26682;51.660;19.338;2023-03-14T10:42:48;13.00;1.00
40952;DHT22;26682;51.660;19.338;2023-03-14T10:45:42;12.90;1.00
40952;DHT22;26682;51.660;19.338;2023-03-14T10:48:34;12.70;1.00
40952;DHT22;26682;51.660;19.338;2023-03-14T10:54:20;12.40;1.00
40952;DHT22;26682;51.660;19.338;2023-03-14T10:57:05;12.30;1.00
40952;DHT22;26682;51.660;19.338;2023-03-14T10:59:51;12.20;1.00
40952;DHT22;26682;51.660;19.338;2023-03-14T11:05:51;12.10;1.00
40952;DHT22;26682;51.660;19.338;2023-03-14T11:11:52;12.10;1.00
40952;DHT22;26682;51.660;19.338;2023-03-14T11:14:42;12.10;1.00
40952;DHT22;26682;51.660;19.338;2023-03-14T11:17:38;12.10;10.70
40952;DHT22;26682;51.660;19.338;2023-03-14T11:23:13;11.90;1.00
40952;DHT22;26682;51.660;19.338;2023-03-14T11:32:34;11.50;99.90
40952;DHT22;26682;51.660;19.338;2023-03-14T11:35:24;11.40;99.90
40952;DHT22;26682;51.660;19.338;2023-03-14T11:41:14;11.10;99.90
40952;DHT22;26682;51.660;19.338;2023-03-14T11:43:59;11.00;99.90
40952;DHT22;26682;51.660;19.338;2023-03-14T11:57:03;10.70;99.90
40952;DHT22;26682;51.660;19.338;2023-03-14T12:03:32;10.60;99.90
40952;DHT22;26682;51.660;19.338;2023-03-14T12:10:26;10.50;1.00
40952;DHT22;26682;51.660;19.338;2023-03-14T12:13:11;10.40;47.80
40952;DHT22;26682;51.660;19.338;2023-03-14T12:16:00;10.30;99.90
40952;DHT22;26682;51.660;19.338;2023-03-14T12:19:27;10.30;99.90
40952;DHT22;26682;51.660;19.338;2023-03-14T12:23:10;10.30;99.90
40952;DHT22;26682;51.660;19.338;2023-03-14T12:26:20;10.30;99.90
40952;DHT22;26682;51.660;19.338;2023-03-14T12:32:07;10.30;99.90
40952;DHT22;26682;51.660;19.338;2023-03-14T12:34:50;10.40;99.90
40952;DHT22;26682;51.660;19.338;2023-03-14T12:37:46;10.40;99.90
40952;DHT22;26682;51.660;19.338;2023-03-14T12:40:33;10.20;99.90
40952;DHT22;26682;51.660;19.338;2023-03-14T12:43:44;10.20;99.90
40952;DHT22;26682;51.660;19.338;2023-03-14T12:46:27;10.20;99.90
40952;DHT22;26682;51.660;19.338;2023-03-14T12:49:10;10.10;99.90
40952;DHT22;26682;51.660;19.338;2023-03-14T12:51:59;10.10;1.00
40952;DHT22;26682;51.660;19.338;2023-03-14T13:01:06;9.90;1.00
40952;DHT22;26682;51.660;19.338;2023-03-14T13:03:57;9.90;1.00
40952;DHT22;26682;51.660;19.338;2023-03-14T13:07:01;9.80;1.00
40952;DHT22;26682;51.660;19.338;2023-03-14T13:09:59;9.80;1.00
40952;DHT22;26682;51.660;19.338;2023-03-14T13:13:01;9.80;1.00
40952;DHT22;26682;51.660;19.338;2023-03-14T13:15:47;9.70;1.00
40952;DHT22;26682;51.660;19.338;2023-03-14T13:18:41;9.70;1.00
40952;DHT22;26682;51.660;19.338;2023-03-14T13:21:25;9.60;1.00
40952;DHT22;26682;51.660;19.338;2023-03-14T13:27:19;9.60;1.00
40952;DHT22;26682;51.660;19.338;2023-03-14T13:30:26;9.60;1.00
40952;DHT22;26682;51.660;19.338;2023-03-14T13:33:18;9.60;1.00
40952;DHT22;26682;51.660;19.338;2023-03-14T13:36:05;9.60;1.00
40952;DHT22;26682;51.660;19.338;2023-03-14T13:38:59;9.50;1.00
40952;DHT22;26682;51.660;19.338;2023-03-14T13:41:42;9.50;1.00
40952;DHT22;26682;51.660;19.338;2023-03-14T13:44:29;9.50;1.00
40952;DHT22;26682;51.660;19.338;2023-03-14T13:47:18;9.50;1.00
40952;DHT22;26682;51.660;19.338;2023-03-14T13:50:01;9.50;1.00
40952;DHT22;26682;51.660;19.338;2023-03-14T13:52:43;9.50;1.00
40952;DHT22;26682;51.660;19.338;2023-03-14T13:55:29;9.50;1.00
40952;DHT22;26682;51.660;19.338;2023-03-14T13:58:24;9.50;1.00
40952;DHT22;26682;51.660;19.338;2023-03-14T14:01:37;9.50;1.00
40952;DHT22;26682;51.660;19.338;2023-03-14T14:04:23;9.60;1.00
40952;DHT22;26682;51.660;19.338;2023-03-14T14:07:15;9.60;1.00
40952;DHT22;26682;51.660;19.338;2023-03-14T14:10:01;9.60;1.00
40952;DHT22;26682;51.660;19.338;2023-03-14T14:13:01;9.70;1.00
40952;DHT22;26682;51.660;19.338;2023-03-14T14:15:46;9.70;1.00
40952;DHT22;26682;51.660;19.338;2023-03-14T14:18:32;9.70;1.00
40952;DHT22;26682;51.660;19.338;2023-03-14T14:21:25;9.70;1.00
40952;DHT22;26682;51.660;19.338;2023-03-14T14:24:32;9.70;1.00
40952;DHT22;26682;51.660;19.338;2023-03-14T14:28:47;9.90;1.00
40952;DHT22;26682;51.660;19.338;2023-03-14T14:31:44;10.00;99.90
40952;DHT22;26682;51.660;19.338;2023-03-14T14:35:07;10.10;99.90
40952;DHT22;26682;51.660;19.338;2023-03-14T14:37:54;10.10;99.90
40952;DHT22;26682;51.660;19.338;2023-03-14T14:41:04;10.10;99.90
40952;DHT22;26682;51.660;19.338;2023-03-14T14:43:52;10.00;99.90
40952;DHT22;26682;51.660;19.338;2023-03-14T14:46:48;10.00;99.90
40952;DHT22;26682;51.660;19.338;2023-03-14T14:49:33;10.00;99.90
40952;DHT22;26682;51.660;19.338;2023-03-14T14:52:41;10.00;99.90
40952;DHT22;26682;51.660;19.338;2023-03-14T14:55:40;10.00;99.90
40952;DHT22;26682;51.660;19.338;2023-03-14T14:58:36;10.00;99.90
40952;DHT22;26682;51.660;19.338;2023-03-14T15:01:33;10.00;99.90
40952;DHT22;26682;51.660;19.338;2023-03-14T15:04:31;10.10;99.90
40952;DHT22;26682;51.660;19.338;2023-03-14T15:07:28;10.20;99.90
40952;DHT22;26682;51.660;19.338;2023-03-14T15:10:19;10.20;99.90
40952;DHT22;26682;51.660;19.338;2023-03-14T15:13:06;10.20;99.90
40952;DHT22;26682;51.660;19.338;2023-03-14T15:15:57;10.20;99.90
40952;DHT22;26682;51.660;19.338;2023-03-14T15:18:42;10.30;99.90
40952;DHT22;26682;51.660;19.338;2023-03-14T15:21:28;10.30;99.90
40952;DHT22;26682;51.660;19.338;2023-03-14T15:24:11;10.30;99.90
40952;DHT22;26682;51.660;19.338;2023-03-14T15:26:55;10.20;99.90
40952;DHT22;26682;51.660;19.338;2023-03-14T15:29:38;10.20;99.90
40952;DHT22;26682;51.660;19.338;2023-03-14T15:32:21;10.10;99.90
40952;DHT22;26682;51.660;19.338;2023-03-14T15:35:05;10.10;99.90
40952;DHT22;26682;51.660;19.338;2023-03-14T15:37:47;10.10;99.90
40952;DHT22;26682;51.660;19.338;2023-03-14T15:40:31;10.10;99.90
40952;DHT22;26682;51.660;19.338;2023-03-14T15:43:13;10.20;99.90
40952;DHT22;26682;51.660;19.338;2023-03-14T15:45:57;10.20;99.90
40952;DHT22;26682;51.660;19.338;2023-03-14T15:48:40;10.20;99.90
40952;DHT22;26682;51.660;19.338;2023-03-14T15:51:23;10.20;99.90
40952;DHT22;26682;51.660;19.338;2023-03-14T15:54:06;10.20;98.30
40952;DHT22;26682;51.660;19.338;2023-03-14T15:56:48;10.10;99.90
40952;DHT22;26682;51.660;19.338;2023-03-14T15:59:31;10.10;99.90
40952;DHT22;26682;51.660;19.338;2023-03-14T16:02:16;10.00;99.90
40952;DHT22;26682;51.660;19.338;2023-03-14T16:04:59;10.00;99.90
40952;DHT22;26682;51.660;19.338;2023-03-14T16:07:42;9.90;99.90
40952;DHT22;26682;51.660;19.338;2023-03-14T16:10:25;9.90;99.90
40952;DHT22;26682;51.660;19.338;2023-03-14T16:13:10;9.90;99.90
40952;DHT22;26682;51.660;19.338;2023-03-14T16:15:55;9.90;99.90
40952;DHT22;26682;51.660;19.338;2023-03-14T16:19:07;9.80;99.90
40952;DHT22;26682;51.660;19.338;2023-03-14T16:21:52;9.80;99.90
40952;DHT22;26682;51.660;19.338;2023-03-14T16:24:36;9.80;99.90
40952;DHT22;26682;51.660;19.338;2023-03-14T16:27:25;9.70;99.90
40952;DHT22;26682;51.660;19.338;2023-03-14T16:30:32;9.70;99.90
40952;DHT22;26682;51.660;19.338;2023-03-14T16:33:17;9.60;99.90
40952;DHT22;26682;51.660;19.338;2023-03-14T16:36:03;9.60;99.90
40952;DHT22;26682;51.660;19.338;2023-03-14T16:38:53;9.50;99.90
40952;DHT22;26682;51.660;19.338;2023-03-14T16:42:01;9.40;99.90
40952;DHT22;26682;51.660;19.338;2023-03-14T16:44:48;9.40;99.90
40952;DHT22;26682;51.660;19.338;2023-03-14T16:47:31;9.40;99.90
40952;DHT22;26682;51.660;19.338;2023-03-14T16:50:13;9.30;99.90
40952;DHT22;26682;51.660;19.338;2023-03-14T16:52:56;9.30;99.90
40952;DHT22;26682;51.660;19.338;2023-03-14T16:55:42;9.30;99.90
40952;DHT22;26682;51.660;19.338;2023-03-14T16:58:25;9.20;99.90
40952;DHT22;26682;51.660;19.338;2023-03-14T17:01:09;9.20;99.90
40952;DHT22;26682;51.660;19.338;2023-03-14T17:03:52;9.20;99.90
40952;DHT22;26682;51.660;19.338;2023-03-14T17:06:35;9.20;99.90
40952;DHT22;26682;51.660;19.338;2023-03-14T17:09:18;9.20;99.90
40952;DHT22;26682;51.660;19.338;2023-03-14T17:12:00;9.20;99.90
40952;DHT22;26682;51.660;19.338;2023-03-14T17:14:43;9.10;99.90
40952;DHT22;26682;51.660;19.338;2023-03-14T17:17:26;9.10;99.90
40952;DHT22;26682;51.660;19.338;2023-03-14T17:20:09;9.10;99.90
40952;DHT22;26682;51.660;19.338;2023-03-14T17:22:52;9.10;99.90
40952;DHT22;26682;51.660;19.338;2023-03-14T17:25:35;9.10;99.90
40952;DHT22;26682;51.660;19.338;2023-03-14T17:28:20;9.10;99.90
40952;DHT22;26682;51.660;19.338;2023-03-14T17:31:09;9.10;99.90
40952;DHT22;26682;51.660;19.338;2023-03-14T17:33:52;9.00;99.90
40952;DHT22;26682;51.660;19.338;2023-03-14T17:36:36;9.00;99.90
40952;DHT22;26682;51.660;19.338;2023-03-14T17:39:19;8.90;99.90
40952;DHT22;26682;51.660;19.338;2023-03-14T17:42:01;8.90;99.90
40952;DHT22;26682;51.660;19.338;2023-03-14T17:44:44;8.90;99.90
40952;DHT22;26682;51.660;19.338;2023-03-14T17:47:27;8.90;99.90
40952;DHT22;26682;51.660;19.338;2023-03-14T17:50:10;8.80;99.90
40952;DHT22;26682;51.660;19.338;2023-03-14T17:52:53;8.80;99.90
40952;DHT22;26682;51.660;19.338;2023-03-14T17:55:36;8.80;99.90
40952;DHT22;26682;51.660;19.338;2023-03-14T17:58:18;8.80;99.90
40952;DHT22;26682;51.660;19.338;2023-03-14T18:01:14;8.70;99.90
40952;DHT22;26682;51.660;19.338;2023-03-14T18:03:58;8.70;99.90
40952;DHT22;26682;51.660;19.338;2023-03-14T18:06:40;8.60;99.90
40952;DHT22;26682;51.660;19.338;2023-03-14T18:09:25;8.60;99.90
40952;DHT22;26682;51.660;19.338;2023-03-14T18:12:09;8.60;99.90
40952;DHT22;26682;51.660;19.338;2023-03-14T18:14:51;8.50;99.90
40952;DHT22;26682;51.660;19.338;2023-03-14T18:17:34;8.50;1.00
40952;DHT22;26682;51.660;19.338;2023-03-14T18:20:17;8.50;1.00
40952;DHT22;26682;51.660;19.338;2023-03-14T18:22:59;8.40;1.00
40952;DHT22;26682;51.660;19.338;2023-03-14T18:25:43;8.50;1.00
40952;DHT22;26682;51.660;19.338;2023-03-14T18:28:26;8.40;1.00
40952;DHT22;26682;51.660;19.338;2023-03-14T18:31:11;8.40;1.00
40952;DHT22;26682;51.660;19.338;2023-03-14T18:33:55;8.40;1.00
40952;DHT22;26682;51.660;19.338;2023-03-14T18:36:38;8.30;1.00
40952;DHT22;26682;51.660;19.338;2023-03-14T18:39:21;8.30;1.00
40952;DHT22;26682;51.660;19.338;2023-03-14T18:42:04;8.30;1.00
40952;DHT22;26682;51.660;19.338;2023-03-14T18:44:47;8.20;1.00
40952;DHT22;26682;51.660;19.338;2023-03-14T18:47:32;8.20;1.00
40952;DHT22;26682;51.660;19.338;2023-03-14T18:50:17;8.20;1.00
40952;DHT22;26682;51.660;19.338;2023-03-14T18:52:59;8.20;1.00
40952;DHT22;26682;51.660;19.338;2023-03-14T18:55:44;8.20;1.00